sensor_id;sensor_type;location;lat;lon;timestamp;P1;durP1;ratioP1;P2;durP2;ratioP2
11111;SDS011;5609;49.466;8.468;2022-09-13T00:01:19;6.83;;;5.43;;
11111;SDS011;5609;49.466;8.468;2022-09-13T00:03:48;7.33;;;5.90;;
11111;SDS011;5609;49.466;8.468;2022-09-13T00:06:16;6.57;;;5.83;;
11111;SDS011;5609;49.466;8.468;2022-09-13T00:08:44;6.70;;;6.00;;
11111;SDS011;5609;49.466;8.468;2022-09-13T00:11:13;6.50;;;5.80;;
11111;SDS011;5609;49.466;8.468;2022-09-13T00:13:41;6.63;;;6.00;;
11111;SDS011;5609;49.466;8.468;2022-09-13T00:16:09;7.03;;;5.50;;
11111;SDS011;5609;49.466;8.468;2022-09-13T00:18:37;6.53;;;5.87;;
11111;SDS011;5609;49.466;8.468;2022-09-13T00:21:07;6.17;;;5.57;;
11111;SDS011;5609;49.466;8.468;2022-09-13T00:23:34;7.20;;;5.50;;
11111;SDS011;5609;49.466;8.468;2022-09-13T00:26:02;8.97;;;5.90;;
11111;SDS011;5609;49.466;8.468;2022-09-13T00:28:29;8.90;;;5.80;;
11111;SDS011;5609;49.466;8.468;2022-09-13T00:30:58;7.93;;;5.73;;
11111;SDS011;5609;49.466;8.468;2022-09-13T00:33:25;8.43;;;5.90;;
11111;SDS011;5609;49.466;8.468;2022-09-13T00:35:52;7.67;;;5.87;;
11111;SDS011;5609;49.466;8.468;2022-09-13T00:38:20;8.77;;;6.17;;
11111;SDS011;5609;49.466;8.468;2022-09-13T00:40:47;7.13;;;5.77;;
11111;SDS011;5609;49.466;8.468;2022-09-13T00:43:16;8.70;;;6.50;;
11111;SDS011;5609;49.466;8.468;2022-09-13T00:45:43;9.07;;;5.73;;
11111;SDS011;5609;49.466;8.468;2022-09-13T00:48:13;11.43;;;6.03;;
11111;SDS011;5609;49.466;8.468;2022-09-13T00:50:43;8.23;;;6.17;;
11111;SDS011;5609;49.466;8.468;2022-09-13T00:53:12;7.67;;;5.93;;
11111;SDS011;5609;49.466;8.468;2022-09-13T00:55:43;7.90;;;5.73;;
11111;SDS011;5609;49.466;8.468;2022-09-13T00:58:14;6.93;;;5.73;;
11111;SDS011;5609;49.466;8.468;2022-09-13T01:00:43;8.13;;;6.30;;
11111;SDS011;5609;49.466;8.468;2022-09-13T01:03:11;7.67;;;5.87;;
11111;SDS011;5609;49.466;8.468;2022-09-13T01:05:40;10.77;;;6.20;;
11111;SDS011;5609;49.466;8.468;2022-09-13T01:08:08;6.90;;;5.47;;
11111;SDS011;5609;49.466;8.468;2022-09-13T01:10:39;8.03;;;6.00;;
11111;SDS011;5609;49.466;8.468;2022-09-13T01:13:09;6.93;;;5.90;;
11111;SDS011;5609;49.466;8.468;2022-09-13T01:15:39;7.10;;;6.40;;
11111;SDS011;5609;49.466;8.468;2022-09-13T01:18:06;7.90;;;6.50;;
11111;SDS011;5609;49.466;8.468;2022-09-13T01:20:38;10.13;;;5.97;;
11111;SDS011;5609;49.466;8.468;2022-09-13T01:23:12;7.93;;;6.40;;
11111;SDS011;5609;49.466;8.468;2022-09-13T01:25:56;8.73;;;6.30;;
11111;SDS011;5609;49.466;8.468;2022-09-13T01:28:39;8.43;;;5.87;;
11111;SDS011;5609;49.466;8.468;2022-09-13T01:31:13;8.30;;;6.60;;
11111;SDS011;5609;49.466;8.468;2022-09-13T01:33:49;7.83;;;6.57;;
11111;SDS011;5609;49.466;8.468;2022-09-13T01:36:25;7.40;;;5.83;;
11111;SDS011;5609;49.466;8.468;2022-09-13T01:38:57;6.93;;;6.10;;
11111;SDS011;5609;49.466;8.468;2022-09-13T01:41:33;9.67;;;6.60;;
11111;SDS011;5609;49.466;8.468;2022-09-13T01:44:09;7.00;;;6.30;;
11111;SDS011;5609;49.466;8.468;2022-09-13T01:46:43;9.63;;;6.23;;
11111;SDS011;5609;49.466;8.468;2022-09-13T01:49:13;10.10;;;7.40;;
11111;SDS011;5609;49.466;8.468;2022-09-13T01:51:44;9.87;;;7.03;;
11111;SDS011;5609;49.466;8.468;2022-09-13T01:54:15;6.80;;;6.10;;
11111;SDS011;5609;49.466;8.468;2022-09-13T01:56:47;7.37;;;6.57;;
11111;SDS011;5609;49.466;8.468;2022-09-13T01:59:15;12.23;;;7.27;;
11111;SDS011;5609;49.466;8.468;2022-09-13T02:01:47;9.77;;;7.10;;
11111;SDS011;5609;49.466;8.468;2022-09-13T02:04:17;8.77;;;6.53;;
11111;SDS011;5609;49.466;8.468;2022-09-13T02:06:46;8.93;;;6.37;;
11111;SDS011;5609;49.466;8.468;2022-09-13T02:09:16;7.87;;;6.20;;
11111;SDS011;5609;49.466;8.468;2022-09-13T02:11:46;8.40;;;7.00;;
11111;SDS011;5609;49.466;8.468;2022-09-13T02:14:14;10.43;;;7.03;;
11111;SDS011;5609;49.466;8.468;2022-09-13T02:16:44;9.80;;;6.63;;
11111;SDS011;5609;49.466;8.468;2022-09-13T02:19:15;10.60;;;6.90;;
11111;SDS011;5609;49.466;8.468;2022-09-13T02:21:45;9.20;;;6.50;;
11111;SDS011;5609;49.466;8.468;2022-09-13T02:24:14;8.40;;;6.67;;
11111;SDS011;5609;49.466;8.468;2022-09-13T02:26:42;11.37;;;6.77;;
11111;SDS011;5609;49.466;8.468;2022-09-13T02:29:12;10.73;;;7.40;;
11111;SDS011;5609;49.466;8.468;2022-09-13T02:31:42;14.87;;;7.87;;
11111;SDS011;5609;49.466;8.468;2022-09-13T02:34:14;12.70;;;8.30;;
11111;SDS011;5609;49.466;8.468;2022-09-13T02:36:43;11.43;;;8.13;;
11111;SDS011;5609;49.466;8.468;2022-09-13T02:39:11;11.97;;;8.07;;
11111;SDS011;5609;49.466;8.468;2022-09-13T02:41:42;10.23;;;8.13;;
11111;SDS011;5609;49.466;8.468;2022-09-13T02:44:11;10.60;;;7.70;;
11111;SDS011;5609;49.466;8.468;2022-09-13T02:46:43;9.40;;;7.80;;
11111;SDS011;5609;49.466;8.468;2022-09-13T02:49:16;13.57;;;8.00;;
11111;SDS011;5609;49.466;8.468;2022-09-13T02:51:49;8.27;;;7.23;;
11111;SDS011;5609;49.466;8.468;2022-09-13T02:54:22;10.30;;;7.53;;
11111;SDS011;5609;49.466;8.468;2022-09-13T02:56:53;8.17;;;7.37;;
11111;SDS011;5609;49.466;8.468;2022-09-13T02:59:23;9.97;;;7.53;;
11111;SDS011;5609;49.466;8.468;2022-09-13T03:01:51;8.27;;;7.47;;
11111;SDS011;5609;49.466;8.468;2022-09-13T03:04:22;11.77;;;7.63;;
11111;SDS011;5609;49.466;8.468;2022-09-13T03:06:49;8.27;;;7.47;;
11111;SDS011;5609;49.466;8.468;2022-09-13T03:09:16;9.20;;;7.37;;
11111;SDS011;5609;49.466;8.468;2022-09-13T03:11:49;8.10;;;6.77;;
11111;SDS011;5609;49.466;8.468;2022-09-13T03:14:22;10.10;;;7.50;;
11111;SDS011;5609;49.466;8.468;2022-09-13T03:16:58;9.53;;;7.60;;
11111;SDS011;5609;49.466;8.468;2022-09-13T03:19:37;8.50;;;7.63;;
11111;SDS011;5609;49.466;8.468;2022-09-13T03:22:13;10.70;;;7.20;;
11111;SDS011;5609;49.466;8.468;2022-09-13T03:24:48;7.90;;;7.10;;
11111;SDS011;5609;49.466;8.468;2022-09-13T03:27:17;11.30;;;7.00;;
11111;SDS011;5609;49.466;8.468;2022-09-13T03:29:50;9.57;;;7.00;;
11111;SDS011;5609;49.466;8.468;2022-09-13T03:32:20;8.00;;;6.50;;
11111;SDS011;5609;49.466;8.468;2022-09-13T03:34:52;8.93;;;7.13;;
11111;SDS011;5609;49.466;8.468;2022-09-13T03:37:22;7.87;;;7.07;;
11111;SDS011;5609;49.466;8.468;2022-09-13T03:39:51;7.47;;;6.67;;
11111;SDS011;5609;49.466;8.468;2022-09-13T03:42:21;8.00;;;7.00;;
11111;SDS011;5609;49.466;8.468;2022-09-13T03:44:49;8.07;;;7.13;;
11111;SDS011;5609;49.466;8.468;2022-09-13T03:47:17;9.67;;;7.33;;
11111;SDS011;5609;49.466;8.468;2022-09-13T03:49:45;10.40;;;7.23;;
11111;SDS011;5609;49.466;8.468;2022-09-13T03:52:16;9.80;;;7.23;;
11111;SDS011;5609;49.466;8.468;2022-09-13T03:54:44;8.70;;;6.80;;
11111;SDS011;5609;49.466;8.468;2022-09-13T03:57:11;8.60;;;7.27;;
11111;SDS011;5609;49.466;8.468;2022-09-13T03:59:40;11.30;;;7.17;;
11111;SDS011;5609;49.466;8.468;2022-09-13T04:02:09;9.40;;;6.80;;
11111;SDS011;5609;49.466;8.468;2022-09-13T04:04:36;10.77;;;7.13;;
11111;SDS011;5609;49.466;8.468;2022-09-13T04:07:04;9.97;;;7.33;;
11111;SDS011;5609;49.466;8.468;2022-09-13T04:09:32;7.80;;;7.07;;
11111;SDS011;5609;49.466;8.468;2022-09-13T04:11:59;9.60;;;7.43;;
11111;SDS011;5609;49.466;8.468;2022-09-13T04:14:26;8.77;;;6.93;;
11111;SDS011;5609;49.466;8.468;2022-09-13T04:16:54;8.90;;;7.20;;
11111;SDS011;5609;49.466;8.468;2022-09-13T04:19:22;10.93;;;7.27;;
11111;SDS011;5609;49.466;8.468;2022-09-13T04:21:49;12.20;;;7.70;;
11111;SDS011;5609;49.466;8.468;2022-09-13T04:24:17;10.43;;;7.50;;
11111;SDS011;5609;49.466;8.468;2022-09-13T04:26:48;13.53;;;8.40;;
11111;SDS011;5609;49.466;8.468;2022-09-13T04:29:17;11.30;;;7.60;;
11111;SDS011;5609;49.466;8.468;2022-09-13T04:31:44;9.37;;;8.07;;
11111;SDS011;5609;49.466;8.468;2022-09-13T04:34:11;12.77;;;7.80;;
11111;SDS011;5609;49.466;8.468;2022-09-13T04:36:38;10.37;;;7.93;;
11111;SDS011;5609;49.466;8.468;2022-09-13T04:39:06;9.40;;;7.27;;
11111;SDS011;5609;49.466;8.468;2022-09-13T04:41:33;8.57;;;7.67;;
11111;SDS011;5609;49.466;8.468;2022-09-13T04:44:02;11.97;;;7.53;;
11111;SDS011;5609;49.466;8.468;2022-09-13T04:46:29;9.30;;;7.60;;
11111;SDS011;5609;49.466;8.468;2022-09-13T04:48:56;12.27;;;7.60;;
11111;SDS011;5609;49.466;8.468;2022-09-13T04:51:24;8.17;;;7.10;;
11111;SDS011;5609;49.466;8.468;2022-09-13T04:53:51;9.13;;;6.80;;
11111;SDS011;5609;49.466;8.468;2022-09-13T04:56:19;8.83;;;6.73;;
11111;SDS011;5609;49.466;8.468;2022-09-13T04:58:47;9.07;;;7.00;;
11111;SDS011;5609;49.466;8.468;2022-09-13T05:01:15;7.97;;;6.37;;
11111;SDS011;5609;49.466;8.468;2022-09-13T05:03:42;7.97;;;6.60;;
11111;SDS011;5609;49.466;8.468;2022-09-13T05:06:10;8.63;;;6.10;;
11111;SDS011;5609;49.466;8.468;2022-09-13T05:08:37;10.07;;;6.23;;
11111;SDS011;5609;49.466;8.468;2022-09-13T05:11:05;7.47;;;6.77;;
11111;SDS011;5609;49.466;8.468;2022-09-13T05:13:33;8.40;;;6.23;;
11111;SDS011;5609;49.466;8.468;2022-09-13T05:16:01;8.60;;;6.47;;
11111;SDS011;5609;49.466;8.468;2022-09-13T05:18:30;10.20;;;7.00;;
11111;SDS011;5609;49.466;8.468;2022-09-13T05:20:58;10.87;;;6.77;;
11111;SDS011;5609;49.466;8.468;2022-09-13T05:23:26;9.67;;;6.80;;
11111;SDS011;5609;49.466;8.468;2022-09-13T05:25:53;8.33;;;6.80;;
11111;SDS011;5609;49.466;8.468;2022-09-13T05:28:20;8.00;;;6.70;;
11111;SDS011;5609;49.466;8.468;2022-09-13T05:30:54;19.17;;;15.97;;
11111;SDS011;5609;49.466;8.468;2022-09-13T05:33:28;26.83;;;17.67;;
11111;SDS011;5609;49.466;8.468;2022-09-13T05:35:57;11.17;;;8.30;;
11111;SDS011;5609;49.466;8.468;2022-09-13T05:38:24;29.37;;;22.20;;
11111;SDS011;5609;49.466;8.468;2022-09-13T05:40:52;19.53;;;14.23;;
11111;SDS011;5609;49.466;8.468;2022-09-13T05:43:21;14.40;;;10.57;;
11111;SDS011;5609;49.466;8.468;2022-09-13T05:45:48;11.23;;;9.57;;
11111;SDS011;5609;49.466;8.468;2022-09-13T05:48:15;7.93;;;6.67;;
11111;SDS011;5609;49.466;8.468;2022-09-13T05:50:42;8.47;;;6.20;;
11111;SDS011;5609;49.466;8.468;2022-09-13T05:53:10;7.67;;;5.93;;
11111;SDS011;5609;49.466;8.468;2022-09-13T05:55:37;6.47;;;5.80;;
11111;SDS011;5609;49.466;8.468;2022-09-13T05:58:04;12.40;;;9.83;;
11111;SDS011;5609;49.466;8.468;2022-09-13T06:00:31;6.43;;;5.63;;
11111;SDS011;5609;49.466;8.468;2022-09-13T06:02:59;6.13;;;5.53;;
11111;SDS011;5609;49.466;8.468;2022-09-13T06:05:26;6.13;;;5.40;;
11111;SDS011;5609;49.466;8.468;2022-09-13T06:07:53;6.80;;;6.10;;
11111;SDS011;5609;49.466;8.468;2022-09-13T06:10:21;6.23;;;5.63;;
11111;SDS011;5609;49.466;8.468;2022-09-13T06:12:49;6.40;;;5.50;;
11111;SDS011;5609;49.466;8.468;2022-09-13T06:15:16;6.17;;;5.40;;
11111;SDS011;5609;49.466;8.468;2022-09-13T06:17:43;7.27;;;5.97;;
11111;SDS011;5609;49.466;8.468;2022-09-13T06:20:11;6.23;;;5.63;;
11111;SDS011;5609;49.466;8.468;2022-09-13T06:22:38;6.70;;;5.70;;
11111;SDS011;5609;49.466;8.468;2022-09-13T06:25:06;6.50;;;5.90;;
11111;SDS011;5609;49.466;8.468;2022-09-13T06:27:35;6.67;;;5.90;;
11111;SDS011;5609;49.466;8.468;2022-09-13T06:30:02;6.23;;;5.63;;
11111;SDS011;5609;49.466;8.468;2022-09-13T06:32:31;6.30;;;5.70;;
11111;SDS011;5609;49.466;8.468;2022-09-13T06:34:58;7.03;;;5.40;;
11111;SDS011;5609;49.466;8.468;2022-09-13T06:37:25;5.90;;;5.40;;
11111;SDS011;5609;49.466;8.468;2022-09-13T06:39:52;6.33;;;5.70;;
11111;SDS011;5609;49.466;8.468;2022-09-13T06:42:19;6.33;;;5.73;;
11111;SDS011;5609;49.466;8.468;2022-09-13T06:44:47;6.10;;;5.50;;
11111;SDS011;5609;49.466;8.468;2022-09-13T06:47:15;6.23;;;5.63;;
11111;SDS011;5609;49.466;8.468;2022-09-13T06:49:42;7.13;;;5.60;;
11111;SDS011;5609;49.466;8.468;2022-09-13T06:52:09;6.63;;;5.63;;
11111;SDS011;5609;49.466;8.468;2022-09-13T06:54:36;5.77;;;5.27;;
11111;SDS011;5609;49.466;8.468;2022-09-13T06:57:04;6.90;;;5.47;;
11111;SDS011;5609;49.466;8.468;2022-09-13T06:59:31;7.20;;;5.63;;
11111;SDS011;5609;49.466;8.468;2022-09-13T07:02:00;6.37;;;5.60;;
11111;SDS011;5609;49.466;8.468;2022-09-13T07:04:27;6.10;;;5.30;;
11111;SDS011;5609;49.466;8.468;2022-09-13T07:06:55;7.00;;;6.00;;
11111;SDS011;5609;49.466;8.468;2022-09-13T07:09:23;7.43;;;6.03;;
11111;SDS011;5609;49.466;8.468;2022-09-13T07:11:50;6.30;;;5.70;;
11111;SDS011;5609;49.466;8.468;2022-09-13T07:14:18;6.37;;;5.63;;
11111;SDS011;5609;49.466;8.468;2022-09-13T07:16:46;6.10;;;5.50;;
11111;SDS011;5609;49.466;8.468;2022-09-13T07:19:15;6.10;;;5.57;;
11111;SDS011;5609;49.466;8.468;2022-09-13T07:21:43;8.37;;;6.10;;
11111;SDS011;5609;49.466;8.468;2022-09-13T07:24:10;7.07;;;5.57;;
11111;SDS011;5609;49.466;8.468;2022-09-13T07:26:37;6.93;;;5.20;;
11111;SDS011;5609;49.466;8.468;2022-09-13T07:29:05;5.90;;;5.30;;
11111;SDS011;5609;49.466;8.468;2022-09-13T07:31:34;6.10;;;5.10;;
11111;SDS011;5609;49.466;8.468;2022-09-13T07:34:02;6.07;;;5.20;;
11111;SDS011;5609;49.466;8.468;2022-09-13T07:36:32;8.30;;;5.33;;
11111;SDS011;5609;49.466;8.468;2022-09-13T07:39:00;6.77;;;4.90;;
11111;SDS011;5609;49.466;8.468;2022-09-13T07:41:27;5.53;;;5.03;;
11111;SDS011;5609;49.466;8.468;2022-09-13T07:43:55;9.93;;;5.60;;
11111;SDS011;5609;49.466;8.468;2022-09-13T07:46:24;7.03;;;5.57;;
11111;SDS011;5609;49.466;8.468;2022-09-13T07:48:51;6.07;;;5.50;;
11111;SDS011;5609;49.466;8.468;2022-09-13T07:51:20;5.30;;;4.90;;
11111;SDS011;5609;49.466;8.468;2022-09-13T07:53:49;5.93;;;5.20;;
11111;SDS011;5609;49.466;8.468;2022-09-13T07:56:17;6.10;;;5.30;;
11111;SDS011;5609;49.466;8.468;2022-09-13T07:58:45;6.00;;;5.40;;
11111;SDS011;5609;49.466;8.468;2022-09-13T08:01:13;6.10;;;5.47;;
11111;SDS011;5609;49.466;8.468;2022-09-13T08:03:41;7.13;;;5.60;;
11111;SDS011;5609;49.466;8.468;2022-09-13T08:06:08;5.20;;;4.70;;
11111;SDS011;5609;49.466;8.468;2022-09-13T08:08:36;5.70;;;5.20;;
11111;SDS011;5609;49.466;8.468;2022-09-13T08:11:05;6.30;;;5.70;;
11111;SDS011;5609;49.466;8.468;2022-09-13T08:13:32;8.73;;;5.60;;
11111;SDS011;5609;49.466;8.468;2022-09-13T08:16:02;6.30;;;5.50;;
11111;SDS011;5609;49.466;8.468;2022-09-13T08:18:30;6.27;;;5.37;;
11111;SDS011;5609;49.466;8.468;2022-09-13T08:20:57;7.43;;;5.37;;
11111;SDS011;5609;49.466;8.468;2022-09-13T08:23:25;6.60;;;5.57;;
11111;SDS011;5609;49.466;8.468;2022-09-13T08:25:52;8.13;;;5.23;;
11111;SDS011;5609;49.466;8.468;2022-09-13T08:28:21;6.97;;;4.97;;
11111;SDS011;5609;49.466;8.468;2022-09-13T08:30:49;5.90;;;4.67;;
11111;SDS011;5609;49.466;8.468;2022-09-13T08:33:16;8.57;;;5.87;;
11111;SDS011;5609;49.466;8.468;2022-09-13T08:35:48;8.30;;;6.17;;
11111;SDS011;5609;49.466;8.468;2022-09-13T08:38:15;6.87;;;5.60;;
11111;SDS011;5609;49.466;8.468;2022-09-13T08:40:44;8.77;;;5.83;;
11111;SDS011;5609;49.466;8.468;2022-09-13T08:43:15;7.70;;;5.57;;
11111;SDS011;5609;49.466;8.468;2022-09-13T08:45:49;5.83;;;5.17;;
11111;SDS011;5609;49.466;8.468;2022-09-13T08:48:18;9.13;;;5.80;;
11111;SDS011;5609;49.466;8.468;2022-09-13T08:50:46;6.53;;;5.80;;
11111;SDS011;5609;49.466;8.468;2022-09-13T08:53:16;9.17;;;6.43;;
11111;SDS011;5609;49.466;8.468;2022-09-13T08:55:50;7.17;;;6.23;;
11111;SDS011;5609;49.466;8.468;2022-09-13T08:58:28;6.63;;;5.70;;
11111;SDS011;5609;49.466;8.468;2022-09-13T09:01:00;6.30;;;5.50;;
11111;SDS011;5609;49.466;8.468;2022-09-13T09:03:30;9.40;;;5.53;;
11111;SDS011;5609;49.466;8.468;2022-09-13T09:06:01;5.37;;;4.80;;
11111;SDS011;5609;49.466;8.468;2022-09-13T09:08:29;6.60;;;4.97;;
11111;SDS011;5609;49.466;8.468;2022-09-13T09:11:00;5.17;;;4.67;;
11111;SDS011;5609;49.466;8.468;2022-09-13T09:13:28;5.90;;;4.67;;
11111;SDS011;5609;49.466;8.468;2022-09-13T09:15:57;5.00;;;4.50;;
11111;SDS011;5609;49.466;8.468;2022-09-13T09:18:28;7.13;;;4.70;;
11111;SDS011;5609;49.466;8.468;2022-09-13T09:20:57;7.13;;;4.87;;
11111;SDS011;5609;49.466;8.468;2022-09-13T09:23:25;5.47;;;4.73;;
11111;SDS011;5609;49.466;8.468;2022-09-13T09:25:55;7.53;;;5.83;;
11111;SDS011;5609;49.466;8.468;2022-09-13T09:28:23;6.40;;;5.80;;
11111;SDS011;5609;49.466;8.468;2022-09-13T09:30:56;6.50;;;5.80;;
11111;SDS011;5609;49.466;8.468;2022-09-13T09:36:17;5.37;;;4.97;;
11111;SDS011;5609;49.466;8.468;2022-09-13T09:38:46;6.40;;;5.80;;
11111;SDS011;5609;49.466;8.468;2022-09-13T09:41:15;6.63;;;5.50;;
11111;SDS011;5609;49.466;8.468;2022-09-13T09:43:47;6.13;;;5.27;;
11111;SDS011;5609;49.466;8.468;2022-09-13T09:46:18;5.67;;;5.00;;
11111;SDS011;5609;49.466;8.468;2022-09-13T09:48:49;6.77;;;4.90;;
11111;SDS011;5609;49.466;8.468;2022-09-13T09:51:19;6.50;;;5.20;;
11111;SDS011;5609;49.466;8.468;2022-09-13T09:53:51;6.47;;;5.23;;
11111;SDS011;5609;49.466;8.468;2022-09-13T09:56:23;5.80;;;4.97;;
11111;SDS011;5609;49.466;8.468;2022-09-13T09:58:50;7.60;;;5.63;;
11111;SDS011;5609;49.466;8.468;2022-09-13T10:01:19;7.73;;;5.37;;
11111;SDS011;5609;49.466;8.468;2022-09-13T10:03:48;6.10;;;5.10;;
11111;SDS011;5609;49.466;8.468;2022-09-13T10:06:17;5.37;;;4.83;;
11111;SDS011;5609;49.466;8.468;2022-09-13T10:08:51;6.23;;;4.90;;
11111;SDS011;5609;49.466;8.468;2022-09-13T10:11:20;6.63;;;5.50;;
11111;SDS011;5609;49.466;8.468;2022-09-13T10:13:56;6.50;;;5.70;;
11111;SDS011;5609;49.466;8.468;2022-09-13T10:16:25;6.53;;;5.40;;
11111;SDS011;5609;49.466;8.468;2022-09-13T10:18:52;5.80;;;5.30;;
11111;SDS011;5609;49.466;8.468;2022-09-13T10:21:21;5.30;;;4.80;;
11111;SDS011;5609;49.466;8.468;2022-09-13T10:23:50;7.90;;;5.10;;
11111;SDS011;5609;49.466;8.468;2022-09-13T10:26:17;5.33;;;4.83;;
11111;SDS011;5609;49.466;8.468;2022-09-13T10:28:58;7.17;;;4.90;;
11111;SDS011;5609;49.466;8.468;2022-09-13T10:31:27;5.67;;;4.53;;
11111;SDS011;5609;49.466;8.468;2022-09-13T10:33:56;6.80;;;4.73;;
11111;SDS011;5609;49.466;8.468;2022-09-13T10:36:25;5.17;;;4.73;;
11111;SDS011;5609;49.466;8.468;2022-09-13T10:38:57;7.13;;;5.00;;
11111;SDS011;5609;49.466;8.468;2022-09-13T10:41:25;4.50;;;4.10;;
11111;SDS011;5609;49.466;8.468;2022-09-13T10:43:55;5.10;;;3.90;;
11111;SDS011;5609;49.466;8.468;2022-09-13T10:46:23;5.10;;;4.10;;
11111;SDS011;5609;49.466;8.468;2022-09-13T10:48:50;4.80;;;3.87;;
11111;SDS011;5609;49.466;8.468;2022-09-13T10:51:33;5.53;;;4.70;;
11111;SDS011;5609;49.466;8.468;2022-09-13T10:54:14;5.03;;;4.10;;
11111;SDS011;5609;49.466;8.468;2022-09-13T10:56:44;4.90;;;4.40;;
11111;SDS011;5609;49.466;8.468;2022-09-13T10:59:21;6.17;;;4.27;;
11111;SDS011;5609;49.466;8.468;2022-09-13T11:01:58;7.57;;;5.13;;
11111;SDS011;5609;49.466;8.468;2022-09-13T11:04:46;6.80;;;4.10;;
11111;SDS011;5609;49.466;8.468;2022-09-13T11:07:32;8.07;;;4.50;;
11111;SDS011;5609;49.466;8.468;2022-09-13T11:10:08;4.87;;;4.47;;
11111;SDS011;5609;49.466;8.468;2022-09-13T11:12:39;7.03;;;5.67;;
11111;SDS011;5609;49.466;8.468;2022-09-13T11:15:12;5.17;;;4.30;;
11111;SDS011;5609;49.466;8.468;2022-09-13T11:17:56;5.03;;;4.30;;
11111;SDS011;5609;49.466;8.468;2022-09-13T11:20:28;4.10;;;3.70;;
11111;SDS011;5609;49.466;8.468;2022-09-13T11:25:45;5.83;;;4.97;;
11111;SDS011;5609;49.466;8.468;2022-09-13T11:28:17;5.60;;;4.40;;
11111;SDS011;5609;49.466;8.468;2022-09-13T11:30:49;4.60;;;4.00;;
11111;SDS011;5609;49.466;8.468;2022-09-13T11:33:26;6.57;;;4.47;;
11111;SDS011;5609;49.466;8.468;2022-09-13T11:38:40;4.37;;;3.97;;
11111;SDS011;5609;49.466;8.468;2022-09-13T11:41:15;4.23;;;3.83;;
11111;SDS011;5609;49.466;8.468;2022-09-13T11:43:51;5.30;;;3.93;;
11111;SDS011;5609;49.466;8.468;2022-09-13T11:46:23;4.63;;;3.90;;
11111;SDS011;5609;49.466;8.468;2022-09-13T11:48:54;5.17;;;3.70;;
11111;SDS011;5609;49.466;8.468;2022-09-13T11:51:27;5.10;;;3.80;;
11111;SDS011;5609;49.466;8.468;2022-09-13T11:54:00;7.13;;;4.00;;
11111;SDS011;5609;49.466;8.468;2022-09-13T11:56:34;4.73;;;3.87;;
11111;SDS011;5609;49.466;8.468;2022-09-13T11:59:06;4.60;;;3.83;;
11111;SDS011;5609;49.466;8.468;2022-09-13T12:01:36;3.97;;;3.40;;
11111;SDS011;5609;49.466;8.468;2022-09-13T12:04:05;4.07;;;3.50;;
11111;SDS011;5609;49.466;8.468;2022-09-13T12:06:34;4.57;;;3.63;;
11111;SDS011;5609;49.466;8.468;2022-09-13T12:09:04;4.40;;;3.27;;
11111;SDS011;5609;49.466;8.468;2022-09-13T12:11:33;3.87;;;3.50;;
11111;SDS011;5609;49.466;8.468;2022-09-13T12:14:03;6.93;;;3.60;;
11111;SDS011;5609;49.466;8.468;2022-09-13T12:16:31;3.87;;;3.30;;
11111;SDS011;5609;49.466;8.468;2022-09-13T12:19:00;3.67;;;3.30;;
11111;SDS011;5609;49.466;8.468;2022-09-13T12:21:28;4.07;;;3.10;;
11111;SDS011;5609;49.466;8.468;2022-09-13T12:24:00;4.00;;;3.10;;
11111;SDS011;5609;49.466;8.468;2022-09-13T12:26:29;6.13;;;5.40;;
11111;SDS011;5609;49.466;8.468;2022-09-13T12:28:58;5.00;;;3.87;;
11111;SDS011;5609;49.466;8.468;2022-09-13T12:31:28;7.53;;;5.20;;
11111;SDS011;5609;49.466;8.468;2022-09-13T12:33:55;6.93;;;3.47;;
11111;SDS011;5609;49.466;8.468;2022-09-13T12:36:28;5.67;;;3.33;;
11111;SDS011;5609;49.466;8.468;2022-09-13T12:39:02;5.20;;;3.23;;
11111;SDS011;5609;49.466;8.468;2022-09-13T12:41:41;4.93;;;3.30;;
11111;SDS011;5609;49.466;8.468;2022-09-13T12:47:02;5.53;;;3.03;;
11111;SDS011;5609;49.466;8.468;2022-09-13T12:49:37;6.43;;;3.20;;
11111;SDS011;5609;49.466;8.468;2022-09-13T12:57:39;4.13;;;2.97;;
11111;SDS011;5609;49.466;8.468;2022-09-13T13:00:11;3.67;;;2.97;;
11111;SDS011;5609;49.466;8.468;2022-09-13T13:02:42;5.00;;;2.93;;
11111;SDS011;5609;49.466;8.468;2022-09-13T13:05:19;3.93;;;2.90;;
11111;SDS011;5609;49.466;8.468;2022-09-13T13:07:50;7.20;;;2.93;;
11111;SDS011;5609;49.466;8.468;2022-09-13T13:10:25;4.73;;;2.80;;
11111;SDS011;5609;49.466;8.468;2022-09-13T13:12:54;3.63;;;2.80;;
11111;SDS011;5609;49.466;8.468;2022-09-13T13:18:22;6.07;;;2.70;;
11111;SDS011;5609;49.466;8.468;2022-09-13T13:21:03;6.30;;;2.70;;
11111;SDS011;5609;49.466;8.468;2022-09-13T13:23:31;6.30;;;2.87;;
11111;SDS011;5609;49.466;8.468;2022-09-13T13:26:01;5.57;;;2.90;;
11111;SDS011;5609;49.466;8.468;2022-09-13T13:31:33;3.27;;;2.87;;
11111;SDS011;5609;49.466;8.468;2022-09-13T13:34:02;2.93;;;2.47;;
11111;SDS011;5609;49.466;8.468;2022-09-13T13:36:30;4.20;;;2.50;;
11111;SDS011;5609;49.466;8.468;2022-09-13T13:38:58;4.03;;;2.33;;
11111;SDS011;5609;49.466;8.468;2022-09-13T13:41:35;3.37;;;2.50;;
11111;SDS011;5609;49.466;8.468;2022-09-13T13:46:46;4.73;;;2.50;;
11111;SDS011;5609;49.466;8.468;2022-09-13T13:55:01;2.50;;;2.20;;
11111;SDS011;5609;49.466;8.468;2022-09-13T13:57:30;3.20;;;2.30;;
11111;SDS011;5609;49.466;8.468;2022-09-13T14:00:03;4.53;;;2.27;;
11111;SDS011;5609;49.466;8.468;2022-09-13T14:02:33;3.50;;;2.30;;
11111;SDS011;5609;49.466;8.468;2022-09-13T14:05:06;3.67;;;2.40;;
11111;SDS011;5609;49.466;8.468;2022-09-13T14:07:39;2.40;;;2.20;;
11111;SDS011;5609;49.466;8.468;2022-09-13T14:10:16;3.97;;;2.33;;
11111;SDS011;5609;49.466;8.468;2022-09-13T14:12:51;2.37;;;2.17;;
11111;SDS011;5609;49.466;8.468;2022-09-13T14:15:25;4.30;;;2.67;;
11111;SDS011;5609;49.466;8.468;2022-09-13T14:18:01;2.97;;;2.30;;
11111;SDS011;5609;49.466;8.468;2022-09-13T14:20:30;5.00;;;2.47;;
11111;SDS011;5609;49.466;8.468;2022-09-13T14:23:10;6.20;;;2.40;;
11111;SDS011;5609;49.466;8.468;2022-09-13T14:25:38;4.97;;;2.47;;
11111;SDS011;5609;49.466;8.468;2022-09-13T14:28:06;3.73;;;2.33;;
11111;SDS011;5609;49.466;8.468;2022-09-13T14:30:34;2.73;;;2.40;;
11111;SDS011;5609;49.466;8.468;2022-09-13T14:33:02;5.47;;;2.60;;
11111;SDS011;5609;49.466;8.468;2022-09-13T14:35:31;2.83;;;2.60;;
11111;SDS011;5609;49.466;8.468;2022-09-13T14:38:08;3.77;;;2.40;;
11111;SDS011;5609;49.466;8.468;2022-09-13T14:40:36;6.27;;;2.57;;
11111;SDS011;5609;49.466;8.468;2022-09-13T14:43:13;6.53;;;2.90;;
11111;SDS011;5609;49.466;8.468;2022-09-13T14:45:41;6.13;;;2.70;;
11111;SDS011;5609;49.466;8.468;2022-09-13T14:48:11;4.53;;;2.60;;
11111;SDS011;5609;49.466;8.468;2022-09-13T14:50:41;5.87;;;2.50;;
11111;SDS011;5609;49.466;8.468;2022-09-13T14:53:13;5.53;;;2.50;;
11111;SDS011;5609;49.466;8.468;2022-09-13T14:55:43;2.80;;;2.53;;
11111;SDS011;5609;49.466;8.468;2022-09-13T14:58:14;4.93;;;2.60;;
11111;SDS011;5609;49.466;8.468;2022-09-13T15:00:44;4.63;;;2.50;;
11111;SDS011;5609;49.466;8.468;2022-09-13T15:03:13;6.43;;;2.30;;
11111;SDS011;5609;49.466;8.468;2022-09-13T15:05:48;6.67;;;2.50;;
11111;SDS011;5609;49.466;8.468;2022-09-13T15:08:26;4.20;;;2.50;;
11111;SDS011;5609;49.466;8.468;2022-09-13T15:10:55;4.33;;;2.50;;
11111;SDS011;5609;49.466;8.468;2022-09-13T15:13:24;4.43;;;2.70;;
11111;SDS011;5609;49.466;8.468;2022-09-13T15:15:51;3.47;;;2.20;;
11111;SDS011;5609;49.466;8.468;2022-09-13T15:18:23;4.30;;;2.50;;
11111;SDS011;5609;49.466;8.468;2022-09-13T15:20:50;4.67;;;2.40;;
11111;SDS011;5609;49.466;8.468;2022-09-13T15:23:19;4.60;;;2.33;;
11111;SDS011;5609;49.466;8.468;2022-09-13T15:25:49;4.20;;;2.30;;
11111;SDS011;5609;49.466;8.468;2022-09-13T15:28:19;5.20;;;2.23;;
11111;SDS011;5609;49.466;8.468;2022-09-13T15:30:48;4.03;;;2.30;;
11111;SDS011;5609;49.466;8.468;2022-09-13T15:33:18;5.60;;;2.90;;
11111;SDS011;5609;49.466;8.468;2022-09-13T15:35:47;2.67;;;2.30;;
11111;SDS011;5609;49.466;8.468;2022-09-13T15:38:24;3.83;;;2.30;;
11111;SDS011;5609;49.466;8.468;2022-09-13T15:41:00;3.03;;;2.10;;
11111;SDS011;5609;49.466;8.468;2022-09-13T15:43:27;4.40;;;2.60;;
11111;SDS011;5609;49.466;8.468;2022-09-13T15:45:57;5.50;;;2.50;;
11111;SDS011;5609;49.466;8.468;2022-09-13T15:48:26;2.60;;;2.20;;